Harmony Corners, New York
Current Conditions -  °F | °C
As of 6:22 PM on Wednesday 17 Dec 2014 (Local Time) from KALB Reporting Station
Light Rain Light Rain  
Wind Chill: 30°   Ceiling: 3400
Heat Index: 38°   Visibility: 10mi
Dew Point: 31°   Wind: 14mph
Humidity: 76%   Direction: 290°WNW
Pressure: 29.86"   Gusts: 21mph
Location:  43.002°N, 73.8759°W
Report Text: KALB 172322Z 29012G18KT 10SM -RA FEW022 SCT029 OVC034 03/M01 A2986 RMK AO2 P0000 T00331006
Loading
Personal Weather Stations






























Interactive Weather Map New forecast layout! Learn more

10-Day Weather Forecast

Advertisements
Track Severe Weather on mobile